Date,TemperatureHighF,TemperatureAvgF,TemperatureLowF,DewpointHighF,DewpointAvgF,DewpointLowF,HumidityHigh,HumidityAvg,HumidityLow,PressureMaxIn,PressureMinIn,WindSpeedMaxMPH,WindSpeedAvgMPH,GustSpeedMaxMPH,PrecipitationSumIn
2013-6-1,76.6,70.0,64.0,66.6,63.9,60.3,97,82,60,29.69,29.53,24,5,24,0.22
2013-6-2,63.8,53.4,41.2,62.6,49.4,38.8,98,87,70,29.94,29.52,19,5,20,0.03
2013-6-3,65.5,51.2,33.8,47.9,41.6,33.4,100,73,41,30.03,29.93,19,2,19,0.00
2013-6-4,71.8,57.7,43.7,51.8,45.8,40.9,96,67,44,30.12,30.02,11,1,11,0.00
2013-6-5,68.0,58.9,55.2,51.4,46.1,37.1,80,64,36,30.08,29.92,15,1,16,0.04
2013-6-6,66.5,57.4,52.5,54.1,50.4,46.8,91,78,59,29.94,29.81,13,2,14,0.06
2013-6-7,73.5,59.8,47.1,52.2,48.6,45.4,95,69,40,29.87,29.76,15,2,16,0.00
2013-6-8,73.3,61.4,48.4,56.9,52.5,47.6,98,74,48,29.95,29.81,8,1,9,0.00
2013-6-9,78.7,66.7,54.8,64.5,57.9,52.3,92,74,57,29.97,29.81,17,3,18,0.00
2013-6-10,68.5,64.1,59.9,65.4,61.3,55.4,99,91,67,29.81,29.66,10,2,11,0.12
2013-6-11,79.0,65.9,56.9,69.0,61.8,56.7,100,88,66,29.83,29.72,16,3,16,0.01
2013-6-12,74.8,66.1,57.5,68.1,63.4,57.2,100,92,73,29.83,29.55,13,1,13,0.61
2013-6-13,75.8,66.2,56.8,64.1,59.0,54.3,99,79,55,29.88,29.53,23,4,23,0.47
2013-6-14,77.7,64.4,52.5,56.9,52.9,47.1,95,70,36,30.02,29.88,16,2,16,0.00
2013-6-15,74.3,63.7,50.1,63.4,57.5,48.7,96,81,64,29.97,29.75,21,2,21,0.00
2013-6-16,76.5,68.2,60.6,66.6,62.8,58.4,99,84,60,29.79,29.66,19,5,20,0.56
2013-6-17,81.2,68.5,55.7,62.9,59.0,54.6,99,75,41,29.83,29.74,35,2,36,0.56
2013-6-18,69.5,61.1,51.9,58.5,51.0,44.3,100,73,41,30.00,29.82,18,2,18,0.00
2013-6-19,74.0,60.2,43.0,53.1,45.6,41.1,97,63,33,30.09,30.00,10,1,11,0.00
2013-6-20,83.0,67.5,48.7,59.4,53.2,47.3,96,64,38,30.10,30.02,9,1,9,0.00
2013-6-21,82.5,73.7,62.9,68.3,62.6,54.5,84,68,56,30.07,29.88,18,3,18,0.00
2013-6-22,85.0,74.9,67.9,71.3,67.3,64.7,91,78,56,29.98,29.84,12,3,13,0.00
2013-6-23,86.3,76.9,67.8,70.9,68.0,65.6,95,75,53,29.92,29.81,19,4,19,0.00
2013-6-24,83.2,75.1,69.1,70.6,67.5,64.0,91,78,56,29.92,29.76,21,4,21,0.00
2013-6-25,77.7,69.6,65.2,70.2,66.5,63.1,98,90,73,29.86,29.71,21,3,21,0.49
2013-6-26,83.5,73.1,64.4,73.6,68.8,64.0,100,87,68,29.75,29.62,12,1,12,0.01
2013-6-27,82.7,73.6,64.8,72.8,68.4,64.2,99,84,60,29.64,29.55,20,2,20,0.00
2013-6-28,78.5,67.4,62.0,66.5,63.8,59.7,99,89,61,29.55,29.43,20,2,20,0.17
2013-6-29,71.0,64.6,58.9,64.0,61.4,58.9,100,90,73,29.67,29.47,14,1,14,0.02
2013-6-30,79.0,69.1,59.7,63.3,58.6,51.6,96,71,43,29.90,29.67,16,2,16,0.00